Latest Weather Observations for Batchelor

IDD60801

Issued at 11:31 pm CST Sunday 24 September 2017 (issued every 30 minutes, with the page automatically refreshed every 10 minutes)

About weather observations | Map of weather stations | Latest weather observations for NT | Other Formats
Station Details ID: 014272 Name: BATCHELOR AIRPORT Lat: -13.05 Lon: 131.03 Height: 104.0 m
Data from the previous 72 hours. | See also: Recent months at Batchelor
Date/Time
CST
Temp
°C
App
Temp
°C
Dew
Point
°C
Rel
Hum
%
Delta-T
°C
Wind Press
QNH
hPa
Press
MSL
hPa
Rain since
9am
mm
Dir  Spd
km/h
Gust
km/h
Spd
kts
Gust
kts
24/11:30pm 26.5 29.9 21.0 72 3.6 NW 4 6 2 3 1011.9 1011.3 0.0
24/11:00pm 26.9 30.1 21.2 71 3.8 WNW 6 7 3 4 1011.9 1011.3 0.0
24/10:30pm 27.2 30.2 20.8 68 4.2 WNW 6 9 3 5 1011.9 1011.3 0.0
24/10:00pm 27.5 30.3 20.8 67 4.4 WNW 7 13 4 7 1011.6 1011.0 0.0
24/09:30pm 27.8 29.5 18.5 57 6.0 NNW 7 9 4 5 1011.4 1010.8 0.0
24/09:00pm 28.5 29.3 16.4 48 7.6 NNW 7 11 4 6 1011.1 1010.4 0.0
24/08:30pm 29.4 28.7 15.5 43 8.6 NNW 13 17 7 9 1010.7 1010.0 0.0
24/08:00pm 29.7 30.4 16.1 43 8.5 NW 7 11 4 6 1010.2 1009.5 0.0
24/07:30pm 30.0 31.1 18.1 49 7.7 NW 9 15 5 8 1009.8 1009.1 0.0
24/07:00pm 30.4 31.6 19.1 50 7.4 NW 11 17 6 9 1009.5 1008.8 0.0
24/06:30pm 30.9 31.5 20.2 53 7.1 NW 17 26 9 14 1009.0 1008.3 0.0
24/06:00pm 31.5 32.5 21.1 54 7.0 NW 17 26 9 14 1008.8 1008.1 0.0
24/05:30pm 32.5 32.9 21.0 50 7.8 NW 20 30 11 16 1008.2 1007.5 0.0
24/05:00pm 33.2 33.6 20.7 47 8.4 NW 19 28 10 15 1007.9 1007.2 0.0
24/04:30pm 35.6 35.9 19.5 38 10.7 NW 17 24 9 13 1007.7 1007.0 0.0
24/04:00pm 35.9 36.2 14.5 27 13.3 NW 6 13 3 7 1007.8 1007.1 0.0
24/03:30pm 36.4 36.3 15.0 28 13.5 N 9 17 5 9 1008.1 1007.4 0.0
24/03:00pm 36.2 37.2 15.3 28 13.2 NNW 4 7 2 4 1008.4 1007.7 0.0
24/02:30pm 35.9 36.4 15.6 30 12.9 NNE 7 15 4 8 1008.8 1008.1 0.0
24/02:00pm 35.6 35.9 15.9 31 12.5 NE 9 17 5 9 1009.2 1008.5 0.0
24/01:30pm 35.0 36.0 16.8 34 11.7 E 7 19 4 10 1009.8 1009.1 0.0
24/01:00pm 34.6 35.8 16.9 35 11.3 S 6 11 3 6 1010.3 1009.6 0.0
24/12:30pm 34.2 35.3 16.5 34 11.3 NW 6 13 3 7 1011.0 1010.3 0.0
24/12:00pm 33.5 35.3 18.4 40 9.9 WNW 6 7 3 4 1011.4 1010.8 0.0
24/11:30am 32.5 34.3 18.3 43 9.2 NNE 6 11 3 6 1012.1 1011.5 0.0
24/11:00am 31.8 33.8 18.7 45 8.5 NE 6 11 3 6 1012.6 1012.0 0.0
24/10:30am 31.3 34.1 19.6 49 7.7 NW 4 7 2 4 1013.1 1012.4 0.0
24/10:00am 30.0 32.5 20.3 56 6.4 W 7 11 4 6 1013.5 1012.8 0.0
24/09:30am 29.2 31.9 20.6 59 5.7 WSW 7 11 4 6 1013.8 1013.1 0.0
24/09:00am 28.4 31.8 21.7 67 4.5 W 6 9 3 5 1013.9 1013.2 0.0
24/08:30am 27.4 32.1 22.6 75 3.3 W 2 4 1 2 1013.8 1013.1 0.0
24/08:00am 25.7 30.3 22.4 82 2.2 NNW 2 4 1 2 1013.6 1012.9 0.0
24/07:30am 24.6 29.7 22.7 89 1.3 CALM 0 2 0 1 1013.4 1012.7 0.0
24/07:00am 23.3 28.0 21.9 92 0.9 CALM 0 0 0 0 1013.1 1012.4 0.0
24/06:30am 23.4 27.8 21.3 88 1.4 CALM 0 0 0 0 1012.8 1012.1 0.0
24/06:00am 23.8 28.4 21.7 88 1.4 CALM 0 0 0 0 1012.5 1011.9 0.0
24/05:30am 24.3 29.1 22.2 88 1.4 CALM 0 0 0 0 1012.3 1011.7 0.0
24/05:00am 24.4 28.4 22.8 91 1.1 NNE 6 9 3 5 1012.0 1011.4 0.0
24/04:30am 23.9 28.0 21.6 87 1.5 NNW 2 4 1 2 - - 0.0
24/04:00am 24.3 28.9 22.4 89 1.3 NNW 2 2 1 1 - - 0.0
24/03:30am 24.2 28.6 21.3 84 1.9 CALM 0 0 0 0 1011.9 1011.3 0.0
24/03:00am 24.6 29.0 21.3 82 2.2 CALM 0 2 0 1 1011.9 1011.3 0.0
24/02:30am 24.9 29.1 22.4 86 1.7 NNW 4 6 2 3 1011.9 1011.3 0.0
24/02:00am 24.8 28.8 22.1 85 1.8 NNW 4 6 2 3 1012.1 1011.5 0.0
24/01:30am 24.9 28.8 21.8 83 2.1 NNW 4 4 2 2 1012.2 1011.6 0.0
24/01:00am 25.1 28.4 21.4 80 2.5 NNW 6 6 3 3 1012.3 1011.7 0.0
24/12:30am 25.7 29.8 21.6 78 2.7 N 2 4 1 2 1012.5 1011.9 0.0
24/12:00am 26.0 29.9 21.9 78 2.7 N 4 4 2 2 1012.8 1012.1 0.0
 
Date/Time
CST
Temp
°C
App
Temp
°C
Dew
Point
°C
Rel
Hum
%
Delta-T
°C
Wind Press
QNH
hPa
Press
MSL
hPa
Rain since
9am
mm
Dir  Spd
km/h
Gust
km/h
Spd
kts
Gust
kts
23/11:30pm 26.2 30.0 21.6 76 3.1 WSW 4 6 2 3 1013.1 1012.4 0.0
23/11:00pm 26.5 30.2 20.8 71 3.8 WSW 2 4 1 2 1013.1 1012.4 0.0
23/10:30pm 26.9 30.2 20.7 69 4.1 WNW 4 6 2 3 1013.1 1012.4 0.0
23/10:00pm 27.2 30.5 20.8 68 4.2 WNW 4 6 2 3 1013.1 1012.4 0.0
23/09:30pm 27.3 30.3 20.9 68 4.2 NW 6 7 3 4 1012.6 1012.0 0.0
23/09:00pm 27.7 30.5 20.8 66 4.6 NNW 7 9 4 5 1012.3 1011.7 0.0
23/08:30pm 28.1 30.9 20.9 65 4.8 NW 7 13 4 7 1011.8 1011.2 0.0
23/08:00pm 28.6 31.0 20.9 63 5.1 NW 9 15 5 8 1011.5 1010.9 0.0
23/07:30pm 29.2 31.3 20.9 61 5.5 NW 11 17 6 9 1011.1 1010.4 0.0
23/07:00pm 29.9 31.3 21.0 59 6.0 NW 15 24 8 13 1010.7 1010.0 0.0
23/06:30pm 30.6 32.4 21.9 59 5.9 WNW 15 28 8 15 1010.3 1009.6 0.0
23/06:00pm 31.6 33.3 22.3 57 6.4 WNW 17 28 9 15 1010.0 1009.3 0.0
23/05:30pm 32.9 34.2 21.7 51 7.6 WNW 17 26 9 14 1009.6 1008.9 0.0
23/05:00pm 33.8 34.5 21.2 47 8.5 WNW 19 30 10 16 1009.2 1008.5 0.0
23/04:30pm 35.5 35.5 14.2 28 13.2 NE 7 17 4 9 1008.9 1008.2 0.0
23/04:00pm 37.0 36.7 14.3 26 14.1 ENE 9 15 5 8 1008.9 1008.2 0.0
23/03:30pm 36.5 36.6 14.5 27 13.7 NNE 7 13 4 7 1009.2 1008.5 0.0
23/03:00pm 36.5 36.0 15.0 27 13.5 E 11 19 6 10 1009.6 1008.9 0.0
23/02:30pm 35.1 35.7 15.4 30 12.4 NNE 6 13 3 7 1010.0 1009.3 0.0
23/02:00pm 36.2 36.8 15.9 30 12.9 ESE 7 17 4 9 1010.3 1009.6 0.0
23/01:30pm 35.7 36.5 16.4 31 12.3 ENE 7 17 4 9 1010.7 1010.0 0.0
23/01:00pm 35.1 36.3 16.9 34 11.7 S 6 9 3 5 1011.4 1010.8 0.0
23/12:30pm 34.7 35.5 17.4 35 11.2 E 9 15 5 8 1012.1 1011.5 0.0
23/12:00pm 33.7 35.1 17.8 38 10.3 ENE 7 13 4 7 1012.8 1012.1 0.0
23/11:30am 32.8 35.0 19.3 45 8.9 WSW 6 9 3 5 1013.3 1012.6 0.0
23/11:00am 32.0 33.5 18.9 45 8.6 E 9 19 5 10 1013.9 1013.2 0.0
23/10:30am 31.8 34.8 20.1 50 7.8 SSE 4 7 2 4 1014.3 1013.6 0.0
23/10:00am 31.3 34.2 20.6 53 7.1 E 6 15 3 8 1014.6 1013.9 0.0
23/09:30am 29.3 32.7 21.0 61 5.5 NE 4 6 2 3 1014.8 1014.1 0.0
23/09:00am 29.0 33.3 22.0 66 4.7 E 2 6 1 3 1014.6 1013.9 0.0
23/08:30am 27.6 31.7 22.3 73 3.6 W 4 6 2 3 1014.3 1013.6 0.0
23/08:00am 26.8 31.2 22.8 79 2.7 S 4 6 2 3 1014.3 1013.6 0.0
23/07:30am 25.2 30.4 22.9 87 1.6 CALM 0 0 0 0 1014.0 1013.3 0.0
23/07:00am 24.0 28.9 22.4 91 1.1 CALM 0 0 0 0 1013.8 1013.1 0.0
23/06:30am 23.9 28.8 22.3 91 1.1 CALM 0 0 0 0 1013.7 1013.0 0.0
23/06:00am 23.9 28.8 22.3 91 1.1 CALM 0 0 0 0 1013.5 1012.8 0.0
23/05:30am 24.0 28.9 22.4 91 1.1 CALM 0 0 0 0 1013.1 1012.4 0.0
23/05:00am 23.4 27.6 20.9 86 1.6 CALM 0 0 0 0 1012.9 1012.2 0.0
23/04:30am 23.7 28.3 21.8 89 1.3 CALM 0 0 0 0 1012.5 1011.9 0.0
23/04:00am 23.8 28.3 21.5 87 1.5 CALM 0 2 0 1 1012.5 1011.9 0.0
23/03:30am 24.4 29.4 22.5 89 1.3 CALM 0 4 0 2 1012.8 1012.1 0.0
23/03:00am 24.4 29.2 22.1 87 1.5 CALM 0 0 0 0 1012.9 1012.2 0.0
23/02:30am 24.4 29.2 22.1 87 1.5 CALM 0 0 0 0 1013.0 1012.3 0.0
23/02:00am 24.4 29.0 21.7 85 1.8 CALM 0 0 0 0 1013.0 1012.3 0.0
23/01:30am 24.6 29.5 22.3 87 1.5 CALM 0 0 0 0 1013.1 1012.4 0.0
23/01:00am 24.6 28.8 21.7 84 1.9 NW 2 2 1 1 1013.1 1012.4 0.0
23/12:30am 24.8 29.1 21.9 84 1.9 NW 2 4 1 2 1013.2 1012.5 0.0
23/12:00am 25.2 30.0 22.1 83 2.1 CALM 0 0 0 0 1013.4 1012.7 0.0
 
Date/Time
CST
Temp
°C
App
Temp
°C
Dew
Point
°C
Rel
Hum
%
Delta-T
°C
Wind Press
QNH
hPa
Press
MSL
hPa
Rain since
9am
mm
Dir  Spd
km/h
Gust
km/h
Spd
kts
Gust
kts
22/11:30pm 25.9 30.1 21.8 78 2.7 NW 2 2 1 1 1013.4 1012.7 0.0
22/11:00pm 26.3 30.8 22.2 78 2.8 NW 2 4 1 2 1013.3 1012.6 0.0
22/10:30pm 26.7 30.8 22.3 77 3.0 NW 4 6 2 3 1013.4 1012.7 0.0
22/10:00pm 27.0 30.7 22.2 75 3.2 WSW 6 9 3 5 1013.3 1012.6 0.0
22/09:30pm 27.3 30.9 22.0 73 3.6 W 6 11 3 6 1013.1 1012.4 0.0
22/09:00pm 27.7 30.7 22.0 71 3.8 W 9 19 5 10 1012.9 1012.2 0.0
22/08:30pm 28.1 30.7 21.9 69 4.2 W 11 17 6 9 1012.5 1011.9 0.0
22/08:00pm 28.8 31.1 21.3 64 5.0 WNW 11 20 6 11 1012.0 1011.4 0.0
22/07:30pm 29.2 30.8 21.4 63 5.2 WNW 15 22 8 12 1011.4 1010.8 0.0
22/07:00pm 29.7 30.9 21.4 61 5.6 WNW 17 26 9 14 1011.0 1010.3 0.0
22/06:30pm 30.3 31.9 21.4 59 6.0 WNW 15 24 8 13 1010.4 1009.7 0.0
22/06:00pm 31.9 32.7 21.4 53 7.1 WNW 19 28 10 15 1009.8 1009.1 0.0
22/05:30pm 35.9 36.8 15.1 29 13.1 NNE 4 15 2 8 1009.4 1008.7 0.0
22/05:00pm 36.6 35.3 11.4 22 15.0 ENE 9 15 5 8 1009.1 1008.4 0.0
22/04:30pm 36.6 35.3 11.4 22 15.1 NE 9 15 5 8 1009.1 1008.4 0.0
22/04:00pm 36.8 34.5 11.6 22 15.1 ENE 15 24 8 13 1009.2 1008.5 0.0
22/03:30pm 36.5 35.8 11.3 22 15.0 S 6 9 3 5 1009.4 1008.7 0.0
22/03:00pm 36.9 35.2 12.4 23 14.9 E 13 24 7 13 1009.6 1008.9 0.0
22/02:30pm 36.2 35.2 12.4 24 14.4 E 9 19 5 10 1010.1 1009.4 0.0
22/02:00pm 35.0 34.9 13.8 28 13.0 NE 7 30 4 16 1010.5 1009.8 0.0
22/01:30pm 34.5 33.8 14.4 30 12.4 ENE 11 19 6 10 1011.1 1010.4 0.0
22/01:00pm 34.9 34.9 15.3 31 12.3 NNE 9 19 5 10 1011.7 1011.1 0.0
22/12:30pm 34.6 33.9 15.5 32 12.0 ENE 13 24 7 13 1012.4 1011.8 0.0
22/12:00pm 33.0 33.3 15.9 35 10.8 NE 9 19 5 10 1013.0 1012.3 0.0
22/11:30am 33.2 33.7 17.4 39 10.2 E 11 24 6 13 1013.4 1012.7 0.0
22/11:00am 32.6 33.0 17.2 39 9.9 NE 11 19 6 10 1013.8 1013.1 0.0
22/10:30am 31.7 33.9 19.7 49 7.9 E 7 11 4 6 1014.0 1013.3 0.0
22/10:00am 30.1 33.3 21.2 59 6.0 ESE 6 11 3 6 1014.2 1013.5 0.0
22/09:30am 29.5 32.8 21.4 61 5.4 SE 6 11 3 6 1014.2 1013.5 0.0
22/09:00am 28.1 32.1 21.4 67 4.5 N 2 7 1 4 1014.2 1013.5 0.0
22/08:30am 27.5 31.7 22.4 73 3.5 WNW 4 6 2 3 1014.1 1013.4 0.0
22/08:00am 26.3 31.4 22.6 80 2.5 CALM 0 0 0 0 1013.8 1013.1 0.0
22/07:30am 24.5 29.2 22.0 86 1.7 CALM 0 0 0 0 1013.5 1012.8 0.0
22/07:00am 23.4 27.8 21.3 88 1.4 CALM 0 2 0 1 1013.1 1012.4 0.0
22/06:30am 23.1 27.1 20.6 86 1.6 CALM 0 0 0 0 1012.8 1012.1 0.0
22/06:00am 23.3 27.3 20.6 85 1.8 CALM 0 0 0 0 1012.3 1011.7 0.0
22/05:30am 23.6 27.5 20.3 82 2.1 CALM 0 0 0 0 1012.4 1011.8 0.0
22/05:00am 23.9 27.9 20.6 82 2.2 CALM 0 0 0 0 1012.4 1011.8 0.0
22/04:30am 24.1 28.1 20.6 81 2.3 CALM 0 0 0 0 1012.2 1011.6 0.0
22/04:00am 24.3 28.5 21.0 82 2.2 CALM 0 0 0 0 1012.0 1011.4 0.0
22/03:30am 24.2 28.2 20.5 80 2.4 CALM 0 0 0 0 1012.1 1011.5 0.0
22/03:00am 24.6 28.6 20.5 78 2.7 CALM 0 0 0 0 1012.2 1011.6 0.0
22/02:30am 24.9 28.9 20.6 77 2.8 CALM 0 0 0 0 1012.2 1011.6 0.0
22/02:00am 24.8 28.5 20.7 78 2.7 WNW 2 4 1 2 1012.2 1011.6 0.0
22/01:30am 24.5 28.5 20.6 79 2.6 CALM 0 6 0 3 1012.1 1011.5 0.0
22/01:00am 24.8 28.4 19.8 74 3.2 CALM 0 0 0 0 1012.2 1011.6 0.0
22/12:30am 25.2 28.5 20.7 76 3.0 WNW 4 6 2 3 1012.2 1011.6 0.0
22/12:00am 25.0 28.2 20.5 76 3.0 WNW 4 6 2 3 1012.3 1011.7 0.0

Other Formats:

Comma delimited format used in spreadsheet applications
http://www.bom.gov.au/fwo/IDD60801/IDD60801.94125.axf

JavaScript Object Notation format (JSON) in row-major order
http://www.bom.gov.au/fwo/IDD60801/IDD60801.94125.json